createdAt,value
2022-08-09T00:00:04.808Z,7.10
2022-08-09T00:01:01.463Z,5.60
2022-08-09T00:02:01.429Z,5.80
2022-08-09T00:03:01.386Z,7.30
2022-08-09T00:04:10.256Z,5.40
2022-08-09T00:06:15.356Z,5.90
2022-08-09T00:06:15.791Z,7.70
2022-08-09T00:07:01.306Z,7.20
2022-08-09T00:08:01.506Z,6.40
2022-08-09T00:09:01.268Z,5.60
2022-08-09T00:10:01.246Z,7.50
2022-08-09T00:11:05.545Z,4.80
2022-08-09T00:12:04.388Z,5.50
2022-08-09T00:13:01.190Z,5.60
2022-08-09T00:14:01.168Z,5.40
2022-08-09T00:15:06.576Z,5.80
2022-08-09T00:16:02.819Z,7.30
2022-08-09T00:17:01.120Z,6.70
2022-08-09T00:18:10.881Z,7.50
2022-08-09T00:19:01.073Z,6.30
2022-08-09T00:20:01.052Z,5.20
2022-08-09T00:21:01.039Z,6.50
2022-08-09T00:22:01.022Z,5.90
2022-08-09T00:23:08.294Z,6.50
2022-08-09T00:24:00.976Z,6.80
2022-08-09T00:25:00.956Z,7.60
2022-08-09T00:26:00.935Z,6.40
2022-08-09T00:27:00.918Z,6.70
2022-08-09T00:28:00.898Z,6.40
2022-08-09T00:29:00.879Z,5.50
2022-08-09T00:30:16.366Z,7.30
2022-08-09T00:31:00.839Z,6.20
2022-08-09T00:32:01.304Z,5.30
2022-08-09T00:33:00.801Z,6.80
2022-08-09T00:34:00.781Z,5.90
2022-08-09T00:35:00.764Z,5.60
2022-08-09T00:36:00.749Z,7.10
2022-08-09T00:37:00.729Z,5.60
2022-08-09T00:38:00.707Z,7.50
2022-08-09T00:39:00.687Z,6.50
2022-08-09T00:40:12.060Z,6.10
2022-08-09T00:41:00.720Z,6.70
2022-08-09T00:44:10.788Z,8.50
2022-08-09T00:44:15.219Z,6.90
2022-08-09T00:44:16.792Z,6.80
2022-08-09T00:45:03.827Z,5.90
2022-08-09T00:46:00.549Z,6.00
2022-08-09T00:47:05.385Z,6.40
2022-08-09T00:48:00.511Z,5.20
2022-08-09T00:49:00.491Z,7.50
2022-08-09T00:50:00.471Z,6.80
2022-08-09T00:51:00.453Z,5.80
2022-08-09T00:52:05.365Z,5.60
2022-08-09T00:53:00.415Z,6.50
2022-08-09T00:54:00.392Z,5.00
2022-08-09T00:55:00.981Z,6.70
2022-08-09T00:56:05.130Z,5.40
2022-08-09T00:57:00.336Z,6.00
2022-08-09T00:58:00.314Z,6.20
2022-08-09T00:59:00.297Z,5.70
2022-08-09T01:00:02.801Z,5.50
2022-08-09T01:01:00.376Z,7.00
2022-08-09T01:02:00.261Z,6.50
2022-08-09T01:03:00.219Z,7.60
2022-08-09T01:04:00.201Z,5.20
2022-08-09T01:05:00.183Z,7.40
2022-08-09T01:06:03.763Z,7.90
2022-08-09T01:07:00.138Z,6.50
2022-08-09T01:08:01.501Z,6.30
2022-08-09T01:09:00.100Z,6.20
2022-08-09T01:10:00.085Z,7.00
2022-08-09T01:11:00.064Z,5.60
2022-08-09T01:12:00.047Z,5.70
2022-08-09T01:13:00.027Z,7.30
2022-08-09T01:14:01.814Z,5.80
2022-08-09T01:15:01.068Z,4.80
2022-08-09T01:15:59.964Z,7.80
2022-08-09T01:16:59.945Z,5.60
2022-08-09T01:17:59.925Z,7.70
2022-08-09T01:19:02.484Z,7.00
2022-08-09T01:20:02.809Z,6.50
2022-08-09T01:20:59.871Z,6.60
2022-08-09T01:21:59.846Z,6.00
2022-08-09T01:22:59.825Z,7.20
2022-08-09T01:24:03.465Z,8.60
2022-08-09T01:25:00.838Z,7.20
2022-08-09T01:25:59.766Z,6.60
2022-08-09T01:26:59.746Z,6.10
2022-08-09T01:27:59.728Z,6.40
2022-08-09T01:28:59.709Z,5.90
2022-08-09T01:29:59.691Z,6.90
2022-08-09T01:30:59.989Z,7.70
2022-08-09T01:32:30.959Z,5.80
2022-08-09T01:32:59.633Z,6.70
2022-08-09T01:33:59.612Z,7.30
2022-08-09T01:34:59.592Z,5.50
2022-08-09T01:35:59.579Z,6.80
2022-08-09T01:36:59.555Z,5.40
2022-08-09T01:38:10.221Z,8.00
2022-08-09T01:38:59.514Z,5.90
2022-08-09T01:39:59.495Z,5.50
2022-08-09T01:41:04.975Z,5.40
2022-08-09T01:42:00.635Z,7.20
2022-08-09T01:42:59.434Z,6.70
2022-08-09T01:43:59.417Z,6.20
2022-08-09T01:44:59.395Z,6.30
2022-08-09T01:45:59.385Z,6.70
2022-08-09T01:46:59.353Z,5.60
2022-08-09T01:47:59.342Z,6.40
2022-08-09T01:49:00.029Z,7.00
2022-08-09T01:49:59.301Z,6.70
2022-08-09T01:50:59.281Z,4.70
2022-08-09T01:52:07.248Z,5.80
2022-08-09T01:52:59.238Z,7.40
2022-08-09T01:53:59.219Z,7.00
2022-08-09T01:54:59.200Z,6.40
2022-08-09T01:55:59.180Z,7.10
2022-08-09T01:56:59.161Z,6.20
2022-08-09T01:57:59.145Z,7.10
2022-08-09T01:58:59.126Z,5.60
2022-08-09T02:00:00.196Z,5.90
2022-08-09T02:00:59.146Z,6.20
2022-08-09T02:02:01.133Z,7.80
2022-08-09T02:02:59.044Z,6.30
2022-08-09T02:03:59.025Z,6.30
2022-08-09T02:05:02.736Z,6.90
2022-08-09T02:06:03.764Z,6.60
2022-08-09T02:06:59.132Z,6.10
2022-08-09T02:08:38.991Z,5.80
2022-08-09T02:08:59.855Z,7.00
2022-08-09T02:09:59.396Z,6.80
2022-08-09T02:10:58.887Z,7.50
2022-08-09T02:11:58.866Z,5.30
2022-08-09T02:12:58.851Z,6.70
2022-08-09T02:14:07.149Z,6.60
2022-08-09T02:14:58.813Z,6.40
2022-08-09T02:15:58.791Z,7.00
2022-08-09T02:17:14.609Z,8.20
2022-08-09T02:18:01.255Z,7.10
2022-08-09T02:18:58.727Z,7.10
2022-08-09T02:19:58.710Z,6.90
2022-08-09T02:20:58.857Z,4.90
2022-08-09T02:21:58.670Z,7.80
2022-08-09T02:22:58.651Z,5.10
2022-08-09T02:23:58.631Z,6.60
2022-08-09T02:24:58.611Z,7.50
2022-08-09T02:25:58.591Z,5.30
2022-08-09T02:26:58.812Z,7.90
2022-08-09T02:28:03.832Z,6.80
2022-08-09T02:28:59.662Z,6.80
2022-08-09T02:29:58.511Z,5.80
2022-08-09T02:30:58.491Z,4.90
2022-08-09T02:31:58.474Z,6.30
2022-08-09T02:32:58.458Z,6.60
2022-08-09T02:34:07.422Z,6.80
2022-08-09T02:34:58.412Z,8.20
2022-08-09T02:36:01.501Z,6.10
2022-08-09T02:36:58.373Z,7.00
2022-08-09T02:37:58.355Z,6.80
2022-08-09T02:38:58.335Z,7.50
2022-08-09T02:40:02.040Z,7.30
2022-08-09T02:40:58.298Z,5.80
2022-08-09T02:41:58.277Z,6.50
2022-08-09T02:43:00.103Z,7.20
2022-08-09T02:43:58.239Z,6.60
2022-08-09T02:44:58.218Z,5.40
2022-08-09T02:45:58.199Z,6.30
2022-08-09T02:46:58.180Z,6.70
2022-08-09T02:47:59.518Z,6.30
2022-08-09T02:48:58.139Z,6.40
2022-08-09T02:50:01.737Z,5.70
2022-08-09T02:50:58.105Z,7.70
2022-08-09T02:51:58.079Z,8.40
2022-08-09T02:52:58.060Z,6.90
2022-08-09T02:54:00.373Z,6.60
2022-08-09T02:54:58.018Z,7.80
2022-08-09T02:55:58.776Z,7.30
2022-08-09T02:56:57.982Z,7.50
2022-08-09T02:58:00.774Z,7.60
2022-08-09T02:58:57.941Z,7.30
2022-08-09T03:00:20.489Z,6.30
2022-08-09T03:00:58.991Z,7.10
2022-08-09T03:02:06.731Z,7.10
2022-08-09T03:03:00.104Z,5.70
2022-08-09T03:04:12.913Z,6.50
2022-08-09T03:04:57.830Z,5.90
2022-08-09T03:05:57.807Z,8.90
2022-08-09T03:06:57.783Z,6.70
2022-08-09T03:07:57.763Z,6.70
2022-08-09T03:08:57.749Z,7.30
2022-08-09T03:10:00.654Z,8.50
2022-08-09T03:10:57.703Z,7.90
2022-08-09T03:12:05.450Z,6.80
2022-08-09T03:12:57.665Z,8.80
2022-08-09T03:14:01.205Z,10.20
2022-08-09T03:14:57.622Z,7.40
2022-08-09T03:16:05.794Z,6.40
2022-08-09T03:16:58.329Z,6.50
2022-08-09T03:17:58.735Z,6.50
2022-08-09T03:18:57.543Z,7.40
2022-08-09T03:20:00.538Z,6.50
2022-08-09T03:20:57.504Z,7.90
2022-08-09T03:21:57.489Z,7.20
2022-08-09T03:22:58.204Z,8.20
2022-08-09T03:24:04.010Z,8.90
2022-08-09T03:25:06.140Z,8.40
2022-08-09T03:26:02.129Z,11.20
2022-08-09T03:26:57.382Z,6.50
2022-08-09T03:27:57.364Z,9.50
2022-08-09T03:28:57.343Z,7.90
2022-08-09T03:30:01.356Z,8.00
2022-08-09T03:30:57.302Z,6.70
2022-08-09T03:32:00.225Z,6.50
2022-08-09T03:32:57.265Z,6.60
2022-08-09T03:33:58.004Z,8.50
2022-08-09T03:34:57.223Z,8.30
2022-08-09T03:36:13.115Z,8.30
2022-08-09T03:36:59.635Z,8.80
2022-08-09T03:37:58.729Z,7.30
2022-08-09T03:38:57.149Z,8.80
2022-08-09T03:39:57.159Z,7.40
2022-08-09T03:40:57.103Z,8.00
2022-08-09T03:42:06.102Z,7.10
2022-08-09T03:42:57.064Z,8.60
2022-08-09T03:44:08.232Z,7.40
2022-08-09T03:44:57.154Z,9.70
2022-08-09T03:46:05.304Z,7.00
2022-08-09T03:46:56.981Z,7.50
2022-08-09T03:47:56.964Z,10.10
2022-08-09T03:48:56.943Z,8.60
2022-08-09T03:49:58.428Z,7.20
2022-08-09T03:50:56.936Z,7.10
2022-08-09T03:52:00.298Z,8.00
2022-08-09T03:52:57.546Z,7.00
2022-08-09T03:53:56.842Z,10.20
2022-08-09T03:54:56.821Z,7.60
2022-08-09T03:55:56.803Z,8.60
2022-08-09T03:56:58.046Z,8.20
2022-08-09T03:58:06.443Z,9.30
2022-08-09T03:58:56.740Z,10.10
2022-08-09T04:00:01.276Z,8.70
2022-08-09T04:00:56.930Z,7.60
2022-08-09T04:01:56.682Z,7.40
2022-08-09T04:02:57.364Z,11.00
2022-08-09T04:04:02.325Z,7.90
2022-08-09T04:04:56.625Z,9.40
2022-08-09T04:05:56.824Z,8.30
2022-08-09T04:06:56.581Z,9.00
2022-08-09T04:07:57.310Z,8.90
2022-08-09T04:08:56.541Z,7.80
2022-08-09T04:09:56.521Z,8.90
2022-08-09T04:10:56.498Z,7.50
2022-08-09T04:11:56.479Z,7.40
2022-08-09T04:12:56.459Z,9.80
2022-08-09T04:14:52.924Z,8.50
2022-08-09T04:15:01.709Z,9.00
2022-08-09T04:16:20.134Z,11.10
2022-08-09T04:16:57.394Z,8.70
2022-08-09T04:17:57.736Z,10.50
2022-08-09T04:18:56.337Z,10.70
2022-08-09T04:19:56.518Z,10.30
2022-08-09T04:20:56.297Z,10.40
2022-08-09T04:21:56.279Z,7.80
2022-08-09T04:22:56.281Z,9.90
2022-08-09T04:23:57.547Z,8.00
2022-08-09T04:24:56.268Z,8.70
2022-08-09T04:25:56.198Z,8.90
2022-08-09T04:26:56.174Z,10.00
2022-08-09T04:28:00.047Z,8.20
2022-08-09T04:28:59.730Z,8.80
2022-08-09T04:29:56.115Z,9.30
2022-08-09T04:30:56.094Z,9.90
2022-08-09T04:31:57.937Z,9.40
2022-08-09T04:32:56.056Z,8.70
2022-08-09T04:33:57.128Z,10.80
2022-08-09T04:34:57.593Z,9.40
2022-08-09T04:35:55.995Z,9.80
2022-08-09T04:36:55.973Z,8.90
2022-08-09T04:37:55.959Z,9.20
2022-08-09T04:38:55.933Z,8.70
2022-08-09T04:39:55.914Z,9.50
2022-08-09T04:40:57.123Z,7.80
2022-08-09T04:41:55.873Z,9.90
2022-08-09T04:42:55.854Z,11.20
2022-08-09T04:44:06.733Z,9.50
2022-08-09T04:44:55.811Z,9.20
2022-08-09T04:45:55.792Z,8.80
2022-08-09T04:46:58.287Z,9.20
2022-08-09T04:48:01.169Z,8.60
2022-08-09T04:48:58.224Z,8.30
2022-08-09T04:49:55.973Z,9.60
2022-08-09T04:50:55.690Z,9.10
2022-08-09T04:51:55.672Z,10.50
2022-08-09T04:52:55.650Z,7.60
2022-08-09T04:53:58.611Z,10.30
2022-08-09T04:54:55.612Z,9.00
2022-08-09T04:55:58.057Z,10.50
2022-08-09T04:56:55.570Z,9.50
2022-08-09T04:58:01.552Z,8.70
2022-08-09T04:58:55.529Z,7.70
2022-08-09T04:59:55.554Z,10.20
2022-08-09T05:00:55.545Z,10.30
2022-08-09T05:01:55.468Z,9.00
2022-08-09T05:02:55.448Z,8.60
2022-08-09T05:03:56.882Z,10.40
2022-08-09T05:04:56.164Z,10.20
2022-08-09T05:06:04.461Z,10.70
2022-08-09T05:06:55.876Z,9.20
2022-08-09T05:07:55.350Z,9.10
2022-08-09T05:08:59.943Z,8.60
2022-08-09T05:09:55.306Z,9.70
2022-08-09T05:10:55.287Z,9.40
2022-08-09T05:11:55.267Z,9.60
2022-08-09T05:12:55.254Z,9.90
2022-08-09T05:13:55.225Z,9.70
2022-08-09T05:14:55.241Z,11.30
2022-08-09T05:15:56.852Z,8.50
2022-08-09T05:16:58.886Z,10.20
2022-08-09T05:18:38.429Z,10.70
2022-08-09T05:18:58.454Z,8.60
2022-08-09T05:19:56.865Z,8.90
2022-08-09T05:20:55.082Z,7.40
2022-08-09T05:21:55.665Z,9.50
2022-08-09T05:23:58.124Z,9.80
2022-08-09T05:24:01.243Z,8.50
2022-08-09T05:24:57.277Z,9.70
2022-08-09T05:25:54.985Z,9.30
2022-08-09T05:26:54.963Z,11.50
2022-08-09T05:27:55.409Z,9.60
2022-08-09T05:28:54.921Z,9.10
2022-08-09T05:29:54.903Z,8.30
2022-08-09T05:30:54.881Z,8.90
2022-08-09T05:31:56.704Z,9.10
2022-08-09T05:32:54.839Z,8.90
2022-08-09T05:33:54.820Z,10.20
2022-08-09T05:34:54.801Z,8.40
2022-08-09T05:35:54.778Z,8.20
2022-08-09T05:36:54.762Z,9.20
2022-08-09T05:37:54.739Z,8.50
2022-08-09T05:38:54.721Z,8.90
2022-08-09T05:39:54.793Z,9.10
2022-08-09T05:40:54.682Z,9.10
2022-08-09T05:41:54.682Z,8.80
2022-08-09T05:42:54.637Z,10.00
2022-08-09T05:43:54.618Z,8.90
2022-08-09T05:44:54.611Z,8.70
2022-08-09T05:45:57.204Z,7.80
2022-08-09T05:46:54.556Z,10.90
2022-08-09T05:47:59.231Z,7.70
2022-08-09T05:48:58.559Z,8.60
2022-08-09T05:50:32.094Z,10.60
2022-08-09T05:51:16.708Z,8.90
2022-08-09T05:51:54.453Z,9.00
2022-08-09T05:52:55.019Z,8.90
2022-08-09T05:53:57.264Z,9.50
2022-08-09T05:54:55.318Z,8.70
2022-08-09T05:55:54.375Z,7.70
2022-08-09T05:56:56.678Z,9.90
2022-08-09T05:57:56.927Z,12.00
2022-08-09T05:58:57.940Z,9.00
2022-08-09T05:59:54.295Z,8.30
2022-08-09T06:00:54.273Z,7.70
2022-08-09T06:01:58.545Z,10.70
2022-08-09T06:02:56.967Z,8.80
2022-08-09T06:03:54.567Z,8.70
2022-08-09T06:04:55.746Z,8.70
2022-08-09T06:06:04.632Z,10.40
2022-08-09T06:06:54.156Z,8.10
2022-08-09T06:08:05.550Z,10.70
2022-08-09T06:08:54.111Z,7.90
2022-08-09T06:10:02.748Z,9.60
2022-08-09T06:10:54.071Z,8.20
2022-08-09T06:11:57.349Z,9.20
2022-08-09T06:12:59.365Z,8.40
2022-08-09T06:13:54.010Z,8.30
2022-08-09T06:14:53.993Z,9.20
2022-08-09T06:15:53.968Z,8.60
2022-08-09T06:16:53.952Z,7.40
2022-08-09T06:17:53.940Z,8.80
2022-08-09T06:18:53.919Z,8.30
2022-08-09T06:19:53.910Z,10.30
2022-08-09T06:20:54.854Z,9.20
2022-08-09T06:21:58.696Z,8.70
2022-08-09T06:22:53.833Z,7.40
2022-08-09T06:23:57.715Z,11.70
2022-08-09T06:24:53.794Z,8.70
2022-08-09T06:25:55.170Z,11.00
2022-08-09T06:26:53.750Z,7.40
2022-08-09T06:27:53.726Z,9.40
2022-08-09T06:29:01.018Z,9.10
2022-08-09T06:30:04.721Z,8.00
2022-08-09T06:30:53.669Z,8.10
2022-08-09T06:32:08.501Z,8.10
2022-08-09T06:33:00.857Z,8.50
2022-08-09T06:33:53.709Z,9.70
2022-08-09T06:34:53.595Z,7.50
2022-08-09T06:35:57.201Z,8.10
2022-08-09T06:36:59.172Z,7.50
2022-08-09T06:38:05.997Z,9.40
2022-08-09T06:38:53.507Z,8.50
2022-08-09T06:40:00.043Z,7.80
2022-08-09T06:40:54.901Z,8.80
2022-08-09T06:42:08.810Z,7.80
2022-08-09T06:42:53.430Z,8.80
2022-08-09T06:43:53.406Z,8.10
2022-08-09T06:44:54.572Z,10.50
2022-08-09T06:46:06.981Z,8.50
2022-08-09T06:46:55.162Z,8.10
2022-08-09T06:48:00.596Z,7.20
2022-08-09T06:48:55.583Z,7.60
2022-08-09T06:50:14.518Z,8.80
2022-08-09T06:50:53.267Z,9.20
2022-08-09T06:51:53.245Z,7.70
2022-08-09T06:52:53.228Z,8.60
2022-08-09T06:53:53.221Z,8.40
2022-08-09T06:54:54.160Z,9.30
2022-08-09T06:55:53.167Z,6.50
2022-08-09T06:56:53.148Z,7.30
2022-08-09T06:58:02.660Z,11.30
2022-08-09T07:00:54.831Z,7.30
2022-08-09T07:00:56.410Z,10.90
2022-08-09T07:00:58.532Z,8.70
2022-08-09T07:01:54.244Z,8.10
2022-08-09T07:02:53.121Z,7.90
2022-08-09T07:03:54.760Z,9.40
2022-08-09T07:04:52.990Z,8.60
2022-08-09T07:06:03.148Z,8.60
2022-08-09T07:06:53.461Z,7.70
2022-08-09T07:07:59.922Z,8.60
2022-08-09T07:08:52.908Z,7.90
2022-08-09T07:09:55.865Z,7.00
2022-08-09T07:10:52.884Z,8.50
2022-08-09T07:11:53.657Z,10.20
2022-08-09T07:12:57.670Z,6.40
2022-08-09T07:14:04.458Z,8.60
2022-08-09T07:14:53.592Z,7.30
2022-08-09T07:16:38.399Z,7.40
2022-08-09T07:16:57.693Z,6.60
2022-08-09T07:17:56.161Z,9.30
2022-08-09T07:18:52.710Z,6.50
2022-08-09T07:19:55.417Z,8.80
2022-08-09T07:20:52.677Z,9.70
2022-08-09T07:21:57.167Z,10.50
2022-08-09T07:22:52.936Z,8.40
2022-08-09T07:23:57.899Z,6.00
2022-08-09T07:24:52.599Z,8.80
2022-08-09T07:26:02.385Z,7.30
2022-08-09T07:26:52.562Z,9.50
2022-08-09T07:27:53.559Z,7.70
2022-08-09T07:29:08.472Z,8.10
2022-08-09T07:29:52.494Z,8.00
2022-08-09T07:30:52.478Z,8.40
2022-08-09T07:31:52.456Z,11.80
2022-08-09T07:32:52.463Z,6.50
2022-08-09T07:33:55.705Z,7.30
2022-08-09T07:34:52.398Z,6.20
2022-08-09T07:35:54.226Z,6.90
2022-08-09T07:36:52.857Z,7.70
2022-08-09T07:37:52.337Z,7.50
2022-08-09T07:39:00.403Z,8.20
2022-08-09T07:39:52.321Z,6.20
2022-08-09T07:41:09.951Z,7.40
2022-08-09T07:41:52.259Z,6.70
2022-08-09T07:42:52.480Z,6.40
2022-08-09T07:43:56.347Z,5.40
2022-08-09T07:44:55.411Z,6.20
2022-08-09T07:45:52.181Z,7.60
2022-08-09T07:46:52.164Z,7.60
2022-08-09T07:48:04.040Z,7.50
2022-08-09T07:48:52.806Z,6.50
2022-08-09T07:50:05.144Z,8.30
2022-08-09T07:50:53.147Z,6.70
2022-08-09T07:52:05.547Z,8.00
2022-08-09T07:52:52.058Z,10.70
2022-08-09T07:54:04.447Z,7.50
2022-08-09T07:54:52.010Z,8.50
2022-08-09T07:56:05.878Z,6.10
2022-08-09T07:56:51.973Z,7.20
2022-08-09T07:57:51.952Z,6.80
2022-08-09T07:58:51.935Z,7.00
2022-08-09T08:00:02.693Z,5.60
2022-08-09T08:00:55.697Z,7.10
2022-08-09T08:01:53.082Z,7.50
2022-08-09T08:02:51.860Z,6.60
2022-08-09T08:03:51.840Z,5.60
2022-08-09T08:04:53.827Z,7.30
2022-08-09T08:05:58.082Z,7.60
2022-08-09T08:06:55.763Z,5.80
2022-08-09T08:08:43.329Z,6.20
2022-08-09T08:09:03.467Z,7.10
2022-08-09T08:09:54.738Z,7.90
2022-08-09T08:11:03.352Z,4.50
2022-08-09T08:12:10.536Z,6.00
2022-08-09T08:12:51.673Z,6.50
2022-08-09T08:13:56.847Z,6.00
2022-08-09T08:14:51.642Z,5.90
2022-08-09T08:15:51.617Z,7.50
2022-08-09T08:17:07.487Z,6.00
2022-08-09T08:17:53.460Z,5.70
2022-08-09T08:18:51.560Z,7.20
2022-08-09T08:19:51.543Z,6.60
2022-08-09T08:20:51.533Z,6.00
2022-08-09T08:21:52.889Z,6.50
2022-08-09T08:22:51.490Z,6.00
2022-08-09T08:23:55.656Z,6.80
2022-08-09T08:24:51.450Z,6.80
2022-08-09T08:25:54.286Z,9.20
2022-08-09T08:26:55.550Z,7.90
2022-08-09T08:27:51.393Z,7.20
2022-08-09T08:28:51.382Z,6.50
2022-08-09T08:29:52.390Z,6.90
2022-08-09T08:30:51.343Z,7.00
2022-08-09T08:32:04.431Z,6.80
2022-08-09T08:32:51.306Z,5.00
2022-08-09T08:33:53.933Z,5.70
2022-08-09T08:34:52.004Z,5.10
2022-08-09T08:35:59.816Z,5.70
2022-08-09T08:36:51.235Z,6.50
2022-08-09T08:38:02.258Z,9.10
2022-08-09T08:38:51.222Z,5.30
2022-08-09T08:39:51.310Z,10.30
2022-08-09T08:40:51.161Z,6.60
2022-08-09T08:41:52.198Z,6.50
2022-08-09T08:42:51.135Z,5.80
2022-08-09T08:43:51.107Z,7.60
2022-08-09T08:44:51.089Z,7.50
2022-08-09T08:45:53.366Z,5.60
2022-08-09T08:46:51.054Z,7.40
2022-08-09T08:47:51.035Z,6.80
2022-08-09T08:48:51.519Z,6.50
2022-08-09T08:49:50.998Z,5.80
2022-08-09T08:50:51.843Z,5.10
2022-08-09T08:52:00.312Z,5.60
2022-08-09T08:52:52.873Z,5.20
2022-08-09T08:54:03.839Z,5.70
2022-08-09T08:54:50.913Z,7.20
2022-08-09T08:55:52.420Z,6.60
2022-08-09T08:56:50.876Z,6.30
2022-08-09T08:57:56.520Z,5.60
2022-08-09T08:58:50.850Z,5.40
2022-08-09T08:59:53.818Z,7.40
2022-08-09T09:00:54.266Z,5.60
2022-08-09T09:01:52.994Z,5.70
2022-08-09T09:02:53.427Z,9.00
2022-08-09T09:03:50.834Z,5.30
2022-08-09T09:04:52.845Z,9.70
2022-08-09T09:06:01.024Z,5.50
2022-08-09T09:06:50.703Z,4.90
2022-08-09T09:07:50.685Z,6.70
2022-08-09T09:08:52.489Z,6.20
2022-08-09T09:10:02.863Z,7.80
2022-08-09T09:10:50.634Z,6.10
2022-08-09T09:11:50.618Z,5.50
2022-08-09T09:12:50.603Z,6.40
2022-08-09T09:13:57.935Z,6.20
2022-08-09T09:14:50.574Z,6.30
2022-08-09T09:15:50.548Z,7.60
2022-08-09T09:16:50.530Z,5.60
2022-08-09T09:17:52.795Z,6.70
2022-08-09T09:18:58.138Z,4.90
2022-08-09T09:19:50.476Z,5.60
2022-08-09T09:20:50.464Z,8.10
2022-08-09T09:21:50.441Z,8.00
2022-08-09T09:22:50.426Z,5.80
2022-08-09T09:23:57.237Z,8.40
2022-08-09T09:24:50.391Z,4.80
2022-08-09T09:26:04.291Z,6.10
2022-08-09T09:26:50.366Z,7.60
2022-08-09T09:28:06.519Z,5.60
2022-08-09T09:29:02.183Z,5.30
2022-08-09T09:30:50.289Z,7.30
2022-08-09T09:32:04.529Z,5.80
2022-08-09T09:32:50.255Z,5.70
2022-08-09T09:33:57.042Z,4.80
2022-08-09T09:34:50.218Z,4.80
2022-08-09T09:36:01.001Z,7.60
2022-08-09T09:36:54.493Z,4.60
2022-08-09T09:37:50.171Z,5.90
2022-08-09T09:38:50.154Z,6.80
2022-08-09T09:39:56.721Z,6.90
2022-08-09T09:40:50.120Z,4.90
2022-08-09T09:41:51.068Z,6.90
2022-08-09T09:42:50.085Z,5.30
2022-08-09T09:44:12.345Z,5.10
2022-08-09T09:44:50.052Z,6.30
2022-08-09T09:45:57.654Z,5.60
2022-08-09T09:46:51.530Z,5.60
2022-08-09T09:47:58.790Z,5.70
2022-08-09T09:48:49.985Z,6.30
2022-08-09T09:50:15.076Z,5.70
2022-08-09T09:50:51.274Z,5.60
2022-08-09T09:51:51.430Z,5.80
2022-08-09T09:52:53.752Z,5.40
2022-08-09T09:54:00.897Z,4.60
2022-08-09T09:54:55.189Z,7.20
2022-08-09T09:55:49.868Z,6.10
2022-08-09T09:58:01.133Z,5.60
2022-08-09T09:58:01.274Z,7.00
2022-08-09T09:58:49.816Z,5.00
2022-08-09T09:59:52.070Z,5.20
2022-08-09T10:00:55.527Z,4.50
2022-08-09T10:01:49.763Z,6.20
2022-08-09T10:02:49.751Z,5.80
2022-08-09T10:03:57.388Z,4.40
2022-08-09T10:04:49.719Z,8.00
2022-08-09T10:06:03.704Z,6.00
2022-08-09T10:06:53.919Z,6.10
2022-08-09T10:08:10.813Z,5.60
2022-08-09T10:08:57.217Z,5.10
2022-08-09T10:09:55.016Z,4.80
2022-08-09T10:10:49.621Z,7.60
2022-08-09T10:11:59.624Z,4.50
2022-08-09T10:12:49.723Z,5.60
2022-08-09T10:13:50.399Z,6.50
2022-08-09T10:14:50.114Z,5.50
2022-08-09T10:16:09.451Z,5.50
2022-08-09T10:16:58.346Z,5.70
2022-08-09T10:17:55.684Z,6.40
2022-08-09T10:18:51.334Z,6.20
2022-08-09T10:19:52.018Z,5.60
2022-08-09T10:20:49.448Z,6.30
2022-08-09T10:21:49.687Z,6.10
2022-08-09T10:22:49.417Z,6.00
2022-08-09T10:23:49.401Z,6.50
2022-08-09T10:24:49.895Z,5.70
2022-08-09T10:26:06.797Z,6.10
2022-08-09T10:26:49.353Z,8.70
2022-08-09T10:27:56.902Z,6.40
2022-08-09T10:29:35.993Z,5.60
2022-08-09T10:30:23.521Z,5.40
2022-08-09T10:32:15.235Z,4.60
2022-08-09T10:32:49.670Z,6.40
2022-08-09T10:34:08.257Z,5.40
2022-08-09T10:34:49.219Z,4.60
2022-08-09T10:35:49.213Z,5.60
2022-08-09T10:36:49.188Z,5.60
2022-08-09T10:37:49.170Z,5.10
2022-08-09T10:38:55.906Z,6.60
2022-08-09T10:39:49.893Z,4.50
2022-08-09T10:40:50.257Z,5.00
2022-08-09T10:41:49.541Z,4.80
2022-08-09T10:42:53.167Z,6.30
2022-08-09T10:43:59.231Z,5.30
2022-08-09T10:44:49.058Z,6.90
2022-08-09T10:45:49.449Z,5.30
2022-08-09T10:46:55.805Z,7.30
2022-08-09T10:48:13.179Z,5.10
2022-08-09T10:48:52.250Z,7.90
2022-08-09T10:49:51.806Z,6.10
2022-08-09T10:50:48.965Z,5.60
2022-08-09T10:51:48.974Z,6.00
2022-08-09T10:52:48.932Z,5.10
2022-08-09T10:53:54.281Z,4.20
2022-08-09T10:54:48.899Z,5.70
2022-08-09T10:55:58.174Z,4.50
2022-08-09T10:56:48.867Z,4.60
2022-08-09T10:57:51.807Z,6.00
2022-08-09T10:58:49.384Z,4.20
2022-08-09T10:59:58.069Z,6.40
2022-08-09T11:03:02.559Z,5.20
2022-08-09T11:03:13.915Z,4.90
2022-08-09T11:03:15.302Z,5.10
2022-08-09T11:03:50.159Z,6.70
2022-08-09T11:04:55.724Z,6.10
2022-08-09T11:06:00.340Z,5.60
2022-08-09T11:06:48.706Z,6.40
2022-08-09T11:07:57.615Z,5.30
2022-08-09T11:08:51.105Z,5.60
2022-08-09T11:09:48.874Z,5.30
2022-08-09T11:10:54.850Z,4.30
2022-08-09T11:11:51.677Z,4.60
2022-08-09T11:12:48.612Z,7.20
2022-08-09T11:13:50.040Z,4.80
2022-08-09T11:14:48.580Z,5.20
2022-08-09T11:15:51.217Z,5.00
2022-08-09T11:16:48.548Z,5.70
2022-08-09T11:17:48.533Z,4.70
2022-08-09T11:18:48.518Z,5.20
2022-08-09T11:20:11.265Z,5.50
2022-08-09T11:20:49.686Z,6.30
2022-08-09T11:21:57.451Z,4.70
2022-08-09T11:22:55.504Z,4.50
2022-08-09T11:23:49.289Z,6.30
2022-08-09T11:24:48.427Z,4.80
2022-08-09T11:25:49.348Z,4.50
2022-08-09T11:26:54.803Z,4.00
2022-08-09T11:28:02.711Z,4.00
2022-08-09T11:28:56.170Z,4.20
2022-08-09T11:30:06.239Z,4.40
2022-08-09T11:30:48.361Z,5.90
2022-08-09T11:31:49.742Z,5.20
2022-08-09T11:32:48.296Z,7.10
2022-08-09T11:33:48.281Z,5.30
2022-08-09T11:34:48.408Z,5.40
2022-08-09T11:35:50.366Z,4.60
2022-08-09T11:36:48.237Z,4.00
2022-08-09T11:37:49.791Z,5.20
2022-08-09T11:38:48.209Z,3.60
2022-08-09T11:39:48.333Z,6.10
2022-08-09T11:40:48.176Z,4.80
2022-08-09T11:41:48.784Z,5.90
2022-08-09T11:42:48.489Z,4.40
2022-08-09T11:43:48.127Z,5.70
2022-08-09T11:44:48.111Z,4.90
2022-08-09T11:45:48.095Z,6.20
2022-08-09T11:46:48.080Z,5.90
2022-08-09T11:47:48.066Z,5.30
2022-08-09T11:48:48.049Z,5.30
2022-08-09T11:50:52.956Z,6.40
2022-08-09T11:50:53.619Z,6.90
2022-08-09T11:52:53.877Z,4.70
2022-08-09T11:53:01.060Z,4.60
2022-08-09T11:53:57.784Z,4.70
2022-08-09T11:54:47.957Z,4.40
2022-08-09T11:55:52.519Z,5.60
2022-08-09T11:56:48.628Z,3.80
2022-08-09T11:58:02.702Z,4.10
2022-08-09T11:58:50.211Z,5.20
2022-08-09T11:59:47.883Z,5.20
2022-08-09T12:00:47.864Z,5.30
2022-08-09T12:02:17.185Z,4.80
2022-08-09T12:02:51.189Z,7.60
2022-08-09T12:03:55.473Z,5.60
2022-08-09T12:04:47.859Z,5.40
2022-08-09T12:05:47.785Z,4.80
2022-08-09T12:06:53.123Z,5.00
2022-08-09T12:07:47.757Z,6.10
2022-08-09T12:08:47.740Z,4.40
2022-08-09T12:09:50.858Z,5.20
2022-08-09T12:10:48.386Z,5.20
2022-08-09T12:12:02.475Z,5.30
2022-08-09T12:12:47.681Z,4.80
2022-08-09T12:14:07.360Z,4.60
2022-08-09T12:15:07.526Z,3.70
2022-08-09T12:15:49.516Z,6.80
2022-08-09T12:16:47.620Z,4.60
2022-08-09T12:17:51.951Z,4.20
2022-08-09T12:18:48.991Z,4.20
2022-08-09T12:19:47.581Z,5.00
2022-08-09T12:20:47.562Z,4.50
2022-08-09T12:21:48.832Z,6.10
2022-08-09T12:22:47.528Z,5.30
2022-08-09T12:24:06.381Z,5.10
2022-08-09T12:24:47.495Z,6.40
2022-08-09T12:25:49.471Z,6.60
2022-08-09T12:28:59.752Z,5.50
2022-08-09T12:29:10.894Z,4.60
2022-08-09T12:29:14.149Z,4.40
2022-08-09T12:29:54.580Z,5.10
2022-08-09T12:30:47.400Z,4.60
2022-08-09T12:31:59.181Z,4.90
2022-08-09T12:32:48.484Z,4.60
2022-08-09T12:33:58.652Z,6.00
2022-08-09T12:34:47.341Z,4.50
2022-08-09T12:35:47.859Z,4.50
2022-08-09T12:36:47.316Z,5.10
2022-08-09T12:37:51.451Z,5.90
2022-08-09T12:38:47.283Z,4.20
2022-08-09T12:39:47.347Z,4.90
2022-08-09T12:40:47.252Z,6.50
2022-08-09T12:41:47.235Z,4.50
2022-08-09T12:42:50.488Z,6.00
2022-08-09T12:44:05.529Z,5.60
2022-08-09T12:44:52.382Z,5.10
2022-08-09T12:45:59.661Z,3.90
2022-08-09T12:46:49.275Z,4.20
2022-08-09T12:47:50.088Z,6.10
2022-08-09T12:48:47.130Z,6.20
2022-08-09T12:49:51.088Z,3.90
2022-08-09T12:50:47.098Z,5.90
2022-08-09T12:52:01.734Z,4.80
2022-08-09T12:53:08.311Z,7.10
2022-08-09T12:53:52.819Z,4.30
2022-08-09T12:54:47.038Z,5.40
2022-08-09T12:56:15.820Z,5.70
2022-08-09T12:56:50.935Z,7.90
2022-08-09T12:57:47.029Z,5.10
2022-08-09T12:58:52.017Z,5.00
2022-08-09T13:00:02.174Z,4.20
2022-08-09T13:00:47.033Z,4.10
2022-08-09T13:01:49.806Z,5.30
2022-08-09T13:02:46.919Z,6.10
2022-08-09T13:03:58.389Z,4.80
2022-08-09T13:04:46.895Z,6.10
2022-08-09T13:05:51.709Z,4.60
2022-08-09T13:06:46.858Z,5.10
2022-08-09T13:07:51.289Z,5.40
2022-08-09T13:08:49.229Z,5.90
2022-08-09T13:09:52.744Z,4.40
2022-08-09T13:10:52.230Z,6.00
2022-08-09T13:11:46.823Z,5.70
2022-08-09T13:13:09.490Z,5.00
2022-08-09T13:14:42.858Z,4.00
2022-08-09T13:14:51.515Z,5.40
2022-08-09T13:15:46.722Z,6.20
2022-08-09T13:16:46.707Z,5.50
2022-08-09T13:18:03.745Z,5.40